Time;durP1;ratioP1;P1;durP2;ratioP2;P2;SDS_P1;SDS_P2;PMS_P1;PMS_P2;Temp;Humidity;BMP_temperature;BMP_pressure;BME280_temperature;BME280_humidity;BME280_pressure;Samples;Min_cycle;Max_cycle;Signal;HPM_P1;HPM_P2
2022/12/14 00:01:08;;;;;;;21.67;11.37;;;;;;;-1.67;100.00;99602.76;1762742;81;21584;-66
2022/12/14 00:03:35;;;;;;;24.87;11.97;;;;;;;-1.75;100.00;99604.88;1762839;81;21203;-66
2022/12/14 00:06:19;;;;;;;21.30;10.03;;;;;;;-1.83;100.00;99606.98;1763168;81;21045;-65
2022/12/14 00:08:50;;;;;;;20.97;11.90;;;;;;;-2.07;100.00;99611.17;1762890;80;21112;-65
2022/12/14 00:11:23;;;;;;;25.70;12.73;;;;;;;-2.06;100.00;99623.20;1763101;81;21071;-66
2022/12/14 00:13:53;;;;;;;22.80;11.53;;;;;;;-2.04;100.00;99621.50;1763111;81;21025;-67
2022/12/14 00:16:19;;;;;;;22.73;11.97;;;;;;;-1.99;100.00;99618.52;1763061;81;21203;-65
2022/12/14 00:18:50;;;;;;;20.07;10.83;;;;;;;-1.99;100.00;99626.25;1762856;81;21048;-64
2022/12/14 00:21:16;;;;;;;20.70;10.63;;;;;;;-2.12;100.00;99623.16;1763219;81;21072;-65
2022/12/14 00:23:44;;;;;;;25.67;12.33;;;;;;;-1.97;100.00;99624.55;1762842;81;21020;-66
2022/12/14 00:26:20;;;;;;;22.23;11.63;;;;;;;-1.95;100.00;99625.86;1762659;81;21084;-64
2022/12/14 00:28:47;;;;;;;21.33;12.57;;;;;;;-1.63;100.00;99631.17;1762946;81;21202;-65
2022/12/14 00:31:15;;;;;;;28.73;14.03;;;;;;;-1.46;100.00;99630.38;1762598;81;21540;-67
2022/12/14 00:33:42;;;;;;;21.17;11.27;;;;;;;-1.37;100.00;99632.98;1762936;81;21080;-66
2022/12/14 00:36:09;;;;;;;22.63;12.60;;;;;;;-1.48;100.00;99638.11;1762708;81;21099;-65
2022/12/14 00:38:36;;;;;;;22.20;11.03;;;;;;;-1.27;100.00;99634.73;1762463;81;21115;-65
2022/12/14 00:41:02;;;;;;;22.00;12.07;;;;;;;-1.25;100.00;99636.89;1760654;81;21149;-65
2022/12/14 00:43:28;;;;;;;23.30;12.10;;;;;;;-1.24;100.00;99639.05;1760822;81;21109;-65
2022/12/14 00:45:55;;;;;;;21.53;11.23;;;;;;;-1.29;100.00;99640.32;1761084;81;22164;-65
2022/12/14 00:48:22;;;;;;;23.80;12.97;;;;;;;-1.09;100.00;99638.66;1761041;81;21054;-65
2022/12/14 00:50:49;;;;;;;24.63;13.63;;;;;;;-1.20;100.00;99639.05;1761084;81;21022;-66
2022/12/14 00:53:17;;;;;;;21.73;11.37;;;;;;;-1.23;100.00;99646.80;1760984;81;21597;-66
2022/12/14 00:55:45;;;;;;;24.00;12.20;;;;;;;-0.97;100.00;99648.59;1761139;81;21054;-65
2022/12/14 00:58:13;;;;;;;24.10;12.17;;;;;;;-1.17;100.00;99648.13;1761281;81;21118;-64
2022/12/14 01:00:40;;;;;;;20.67;12.40;;;;;;;-1.32;100.00;99659.70;1753462;81;21058;-65
2022/12/14 01:03:07;;;;;;;23.83;13.00;;;;;;;-1.11;100.00;99655.88;1732248;82;21082;-64
2022/12/14 01:05:34;;;;;;;23.90;12.87;;;;;;;-0.84;100.00;99656.80;1732369;82;21160;-65
2022/12/14 01:08:02;;;;;;;27.13;14.27;;;;;;;-0.75;100.00;99660.70;1732359;82;21075;-65
2022/12/14 01:10:29;;;;;;;23.17;11.70;;;;;;;-0.50;100.00;99650.37;1732315;82;21027;-64
2022/12/14 01:12:56;;;;;;;22.83;12.13;;;;;;;-0.44;100.00;99658.12;1732033;82;21551;-64
2022/12/14 01:15:22;;;;;;;25.27;13.23;;;;;;;-0.77;100.00;99669.31;1732485;82;21031;-66
2022/12/14 01:17:51;;;;;;;22.05;12.05;;;;;;;-0.54;100.00;99665.46;1732637;82;21234;-65
2022/12/14 01:20:18;;;;;;;21.37;12.37;;;;;;;-0.47;100.00;99668.48;1732603;82;21129;-64
2022/12/14 01:22:44;;;;;;;26.63;12.90;;;;;;;-0.67;100.00;99664.17;1732614;82;21554;-65
2022/12/14 01:25:11;;;;;;;21.53;12.23;;;;;;;-0.77;100.00;99663.70;1732432;82;21047;-66
2022/12/14 01:27:38;;;;;;;23.53;13.17;;;;;;;-0.48;100.00;99666.77;1732565;82;21425;-65
2022/12/14 01:30:06;;;;;;;20.17;12.47;;;;;;;-0.53;100.00;99669.35;1732525;82;21783;-66
2022/12/14 01:32:33;;;;;;;25.97;14.17;;;;;;;-0.40;100.00;99665.46;1732390;82;21004;-65
2022/12/14 01:35:00;;;;;;;23.10;12.33;;;;;;;-0.18;100.00;99663.70;1732690;82;21055;-64
2022/12/14 01:37:28;;;;;;;18.57;11.77;;;;;;;-0.04;100.00;99665.44;1732454;82;21039;-65
2022/12/14 01:39:54;;;;;;;22.90;12.78;;;;;;;-0.28;100.00;99666.30;1749780;81;21065;-66
2022/12/14 01:42:21;;;;;;;19.57;11.10;;;;;;;-0.40;100.00;99665.02;1762871;80;21386;-65
2022/12/14 01:44:53;;;;;;;22.45;12.53;;;;;;;-0.34;100.00;99661.59;1762583;81;22040;-65
2022/12/14 01:47:27;;;;;;;20.93;12.07;;;;;;;-0.15;100.00;99670.20;1762608;80;21068;-65
2022/12/14 01:50:15;;;;;;;21.68;11.80;;;;;;;-0.09;100.00;99672.76;1762912;81;21042;-64
2022/12/14 01:52:45;;;;;;;18.50;11.03;;;;;;;-0.19;100.00;99674.94;1751088;80;21096;-65
2022/12/14 01:55:19;;;;;;;22.53;11.53;;;;;;;0.00;100.00;99680.55;1763090;80;21120;-65
2022/12/14 01:57:58;;;;;;;21.40;11.70;;;;;;;-0.13;100.00;99681.41;1762860;81;21040;-65
2022/12/14 02:00:24;;;;;;;21.90;11.33;;;;;;;0.11;100.00;99689.13;1762786;81;21051;-67
2022/12/14 02:03:03;;;;;;;19.50;11.50;;;;;;;0.16;100.00;99690.01;1762875;81;21011;-64
2022/12/14 02:05:29;;;;;;;20.27;11.57;;;;;;;0.19;100.00;99686.11;1762501;81;21028;-63
2022/12/14 02:07:56;;;;;;;21.27;11.68;;;;;;;0.29;100.00;99686.09;1762844;81;21249;-63
2022/12/14 04:20:11;;;;;;;17.02;9.60;;;;;;;-1.33;100.00;99814.28;1732037;81;21230;-63
2022/12/14 04:22:43;;;;;;;14.27;9.40;;;;;;;-1.43;100.00;99816.34;1722298;82;21028;-63
2022/12/14 04:29:55;;;;;;;13.83;8.93;;;;;;;-1.86;100.00;99827.64;1703940;84;21019;-64
2022/12/14 04:30:40;;;;;;;14.20;9.07;;;;;;;-1.96;100.00;99836.59;1698596;84;21048;-66
2022/12/14 04:35:54;;;;;;;19.13;9.67;;;;;;;-1.93;100.00;99835.35;1703602;84;21089;-65
2022/12/14 04:38:26;;;;;;;14.53;9.00;;;;;;;-1.98;100.00;99842.19;1703798;84;21156;-66
2022/12/14 04:40:58;;;;;;;16.33;9.63;;;;;;;-1.94;100.00;99842.64;1703756;84;21096;-66
2022/12/14 04:43:28;;;;;;;16.67;9.37;;;;;;;-1.84;100.00;99847.48;1705276;84;21116;-66
2022/12/14 04:45:58;;;;;;;16.37;8.73;;;;;;;-1.70;100.00;99846.30;1704214;84;21974;-66
2022/12/14 04:48:43;;;;;;;;;;;;;;;-1.69;100.00;99848.02;1709496;84;21020;-65
2022/12/14 04:51:21;;;;;;;18.00;9.93;;;;;;;-1.45;100.00;99849.05;1706860;84;20180;-65
2022/12/14 04:53:50;;;;;;;13.93;8.13;;;;;;;-1.86;100.00;99852.16;1705547;84;21098;-64
2022/12/14 04:56:28;;;;;;;16.93;9.60;;;;;;;-1.44;100.00;99854.67;1706752;84;21099;-65
2022/12/14 04:58:55;;;;;;;15.07;9.30;;;;;;;-1.38;100.00;99863.73;1686600;84;21187;-66
2022/12/14 05:01:35;;;;;;;15.37;8.67;;;;;;;-1.74;100.00;99865.19;1702385;84;21056;-66
2022/12/14 05:04:05;;;;;;;;;;;;;;;-1.88;100.00;99867.66;1732506;82;21072;-65
2022/12/14 05:06:40;;;;;;;14.30;7.83;;;;;;;-1.70;100.00;99875.56;1737117;82;20195;-66
2022/12/14 05:09:25;;;;;;;20.37;9.40;;;;;;;-1.59;100.00;99878.21;1734850;82;21068;-65
2022/12/14 05:12:31;;;;;;;16.33;9.23;;;;;;;-1.60;100.00;99884.67;1733715;82;21128;-66
2022/12/14 05:15:23;;;;;;;21.53;9.80;;;;;;;-1.69;100.00;99882.88;1711612;82;21125;-65
2022/12/14 05:17:50;;;;;;;16.53;9.33;;;;;;;-2.07;100.00;99899.27;1710405;82;21097;-66
2022/12/14 05:20:19;;;;;;;19.03;10.97;;;;;;;-2.15;100.00;99903.08;1711446;83;21081;-66
2022/12/14 05:22:45;;;;;;;16.03;9.73;;;;;;;-2.07;100.00;99900.16;1709663;83;21538;-66
2022/12/14 05:25:12;;;;;;;19.00;10.03;;;;;;;-1.86;100.00;99906.36;1709290;83;21164;-66
2022/12/14 05:27:38;;;;;;;18.40;10.23;;;;;;;-1.91;100.00;99914.06;1707826;84;21086;-66
2022/12/14 05:30:07;;;;;;;22.17;11.13;;;;;;;-1.77;100.00;99915.48;1708857;83;21095;-66
2022/12/14 05:32:33;;;;;;;21.90;11.87;;;;;;;-1.84;100.00;99914.98;1709190;83;21060;-65
2022/12/14 05:35:02;;;;;;;18.77;10.60;;;;;;;-1.83;100.00;99916.73;1710261;83;21031;-66
2022/12/14 05:37:29;;;;;;;17.43;9.90;;;;;;;-1.71;100.00;99923.30;1708535;83;21260;-66
2022/12/14 05:39:56;;;;;;;21.27;11.90;;;;;;;-1.31;100.00;99927.53;1708719;82;21054;-66
2022/12/14 05:42:22;;;;;;;18.27;10.57;;;;;;;-1.23;100.00;99929.73;1709561;83;21030;-65
2022/12/14 05:44:49;;;;;;;21.67;11.40;;;;;;;-1.31;100.00;99936.58;1709378;82;21590;-66
2022/12/14 05:47:16;;;;;;;21.50;10.80;;;;;;;-1.04;100.00;99942.36;1708363;84;21121;-67
2022/12/14 05:49:42;;;;;;;18.80;11.10;;;;;;;-1.33;100.00;99948.18;1708223;82;21251;-66
2022/12/14 05:52:09;;;;;;;25.50;13.97;;;;;;;-1.32;100.00;99946.45;1708796;83;21696;-66
2022/12/14 05:54:36;;;;;;;22.77;11.60;;;;;;;-0.95;100.00;99948.02;1709699;83;21114;-66
2022/12/14 05:57:02;;;;;;;22.07;12.83;;;;;;;-0.93;100.00;99948.90;1710044;83;21585;-67
2022/12/14 05:59:29;;;;;;;22.73;13.30;;;;;;;-1.27;100.00;99954.70;1709285;82;21062;-66
2022/12/14 06:01:56;;;;;;;24.00;13.00;;;;;;;-1.26;100.00;99955.56;1707878;83;21158;-66
2022/12/14 06:04:24;;;;;;;26.00;13.87;;;;;;;-1.12;100.00;99969.45;1732236;82;21036;-65
2022/12/14 06:06:50;;;;;;;25.53;13.00;;;;;;;-0.73;100.00;99964.12;1736760;82;21032;-66
2022/12/14 06:09:17;;;;;;;24.80;13.93;;;;;;;-0.88;100.00;99970.47;1737692;81;21072;-66
2022/12/14 06:11:49;;;;;;;24.83;12.70;;;;;;;-0.64;100.00;99966.75;1737549;81;21052;-66
2022/12/14 06:14:13;;;;;;;21.57;12.17;;;;;;;-0.69;100.00;99980.50;1757159;81;21824;-65
2022/12/14 06:16:42;;;;;;;20.90;12.90;;;;;;;-0.77;100.00;99975.29;1767153;81;21041;-67
2022/12/14 06:19:11;;;;;;;20.10;11.87;;;;;;;-0.55;100.00;99980.58;1762464;81;21088;-66
2022/12/14 06:21:39;;;;;;;22.00;11.77;;;;;;;-0.96;100.00;99983.79;1763154;81;21024;-66
2022/12/14 06:24:07;;;;;;;24.53;12.93;;;;;;;-1.04;100.00;99989.31;1759097;81;21142;-67
2022/12/14 06:26:39;;;;;;;22.07;12.07;;;;;;;-1.07;100.00;99994.89;1747549;81;21153;-67
2022/12/14 06:29:05;;;;;;;21.83;12.40;;;;;;;-0.82;100.00;99995.09;1769803;81;21138;-67
2022/12/14 06:31:33;;;;;;;21.30;11.60;;;;;;;-0.61;100.00;99993.06;1768209;81;21002;-67
2022/12/14 06:34:01;;;;;;;21.20;11.87;;;;;;;-0.76;100.00;100005.89;1760154;81;21061;-67
2022/12/14 06:36:33;;;;;;;21.52;12.53;;;;;;;-0.40;100.00;100013.02;1750374;81;21080;-66
2022/12/14 06:39:03;;;;;;;20.90;12.88;;;;;;;0.09;100.00;100009.38;1751533;81;21243;-66
2022/12/14 06:41:29;;;;;;;21.43;12.37;;;;;;;0.05;100.00;100012.81;1751258;81;21082;-66
2022/12/14 06:43:56;;;;;;;23.63;12.77;;;;;;;0.09;100.00;100014.56;1758299;81;21049;-66
2022/12/14 06:46:23;;;;;;;20.20;11.97;;;;;;;0.09;100.00;100015.85;1750839;81;21057;-66
2022/12/14 06:48:54;;;;;;;21.40;12.50;;;;;;;-0.02;100.00;100023.56;1765539;81;21580;-66
2022/12/14 06:51:21;;;;;;;21.03;12.13;;;;;;;0.32;100.00;100022.80;1768060;81;21198;-67
2022/12/14 06:53:50;;;;;;;24.23;13.40;;;;;;;0.46;100.00;100028.91;1768421;81;21052;-67
2022/12/14 06:56:18;;;;;;;21.40;12.90;;;;;;;0.73;100.00;100029.81;1754083;81;20996;-66
2022/12/14 06:58:44;;;;;;;23.53;12.33;;;;;;;0.60;100.00;100035.42;1759382;81;21592;-67
2022/12/14 07:01:14;;;;;;;22.58;12.25;;;;;;;0.47;100.00;100040.99;1753539;81;21068;-67
2022/12/14 07:03:42;;;;;;;23.80;13.22;;;;;;;0.58;100.00;100046.21;1751453;81;21125;-66
2022/12/14 07:06:09;;;;;;;22.27;12.00;;;;;;;0.30;100.00;100055.61;1731111;81;21541;-66
2022/12/14 07:08:37;;;;;;;23.80;13.53;;;;;;;0.51;100.00;100056.98;1752973;81;21028;-66
2022/12/14 07:11:07;;;;;;;25.30;13.83;;;;;;;0.54;100.00;100061.31;1767827;81;21041;-66
2022/12/14 07:13:34;;;;;;;22.02;12.43;;;;;;;0.43;100.00;100066.89;1737645;81;21115;-67
2022/12/14 07:16:00;;;;;;;25.88;13.83;;;;;;;0.32;100.00;100070.73;1720284;83;21636;-66
2022/12/14 07:18:27;;;;;;;21.93;12.00;;;;;;;-0.26;100.00;100074.77;1717747;83;21066;-67
2022/12/14 07:20:59;;;;;;;22.20;12.13;;;;;;;-0.24;100.00;100066.59;1714421;83;21690;-66
2022/12/14 07:23:26;;;;;;;21.65;12.70;;;;;;;0.00;100.00;100084.43;1711468;83;21539;-66
2022/12/14 07:25:53;;;;;;;23.77;12.53;;;;;;;-0.14;100.00;100077.84;1711912;83;21051;-68
2022/12/14 07:28:19;;;;;;;24.00;13.72;;;;;;;-0.58;100.00;100080.16;1720332;83;21067;-67
2022/12/14 07:30:46;;;;;;;27.70;14.13;;;;;;;-0.29;100.00;100090.72;1720375;83;21027;-67
2022/12/14 07:33:13;;;;;;;22.20;12.23;;;;;;;-0.24;100.00;100097.64;1716850;83;21066;-67
2022/12/14 07:35:40;;;;;;;23.45;12.43;;;;;;;-0.32;100.00;100103.22;1711461;83;21111;-66
2022/12/14 07:38:06;;;;;;;22.75;12.82;;;;;;;-0.07;100.00;100099.46;1719715;83;21049;-68
2022/12/14 07:40:33;;;;;;;22.02;12.85;;;;;;;-0.24;100.00;100106.70;1715896;83;21771;-66
2022/12/14 07:42:59;;;;;;;25.90;12.75;;;;;;;-0.20;100.00;100110.63;1719785;82;21079;-67
2022/12/14 07:45:26;;;;;;;24.37;12.30;;;;;;;-0.07;100.00;100112.41;1716247;83;21111;-67
2022/12/14 07:47:52;;;;;;;25.75;13.10;;;;;;;0.42;100.00;100116.55;1719813;83;21055;-68
2022/12/14 07:50:19;;;;;;;21.70;12.03;;;;;;;0.51;100.00;100127.39;1733152;82;21586;-67
2022/12/14 07:52:45;;;;;;;21.60;12.95;;;;;;;0.57;100.00;100126.95;1732969;82;21199;-67
2022/12/14 07:55:12;;;;;;;29.48;15.43;;;;;;;0.51;100.00;100129.55;1736623;81;21635;-67
2022/12/14 07:57:39;;;;;;;25.40;14.68;;;;;;;0.73;100.00;100127.02;1732408;82;21068;-66
2022/12/14 08:00:08;;;;;;;28.70;13.85;;;;;;;0.55;100.00;100127.41;1737825;82;21024;-66
2022/12/14 08:02:36;;;;;;;25.43;14.10;;;;;;;0.70;100.00;100129.17;1735930;82;21006;-67
2022/12/14 08:05:03;;;;;;;28.75;15.58;;;;;;;0.77;100.00;100130.06;1736112;81;21270;-67
2022/12/14 08:07:30;;;;;;;29.50;16.75;;;;;;;0.97;100.00;100129.68;1738546;82;21060;-67
2022/12/14 08:09:57;;;;;;;25.97;14.45;;;;;;;0.88;100.00;100130.95;1737515;82;21073;-67
2022/12/14 08:12:23;;;;;;;29.92;16.12;;;;;;;0.80;100.00;100141.28;1737738;82;21041;-66
2022/12/14 08:14:51;;;;;;;26.60;14.20;;;;;;;1.02;100.00;100138.32;1725730;82;21563;-67
2022/12/14 08:17:18;;;;;;;26.37;15.03;;;;;;;1.14;100.00;100136.17;1730986;82;21170;-67
2022/12/14 08:19:44;;;;;;;28.98;15.88;;;;;;;1.20;100.00;100147.02;1721840;82;21287;-66
2022/12/14 08:22:11;;;;;;;25.77;14.47;;;;;;;1.23;100.00;100136.63;1725467;82;21056;-66
2022/12/14 08:24:38;;;;;;;30.52;15.30;;;;;;;1.17;100.00;100141.36;1735514;82;21512;-67
2022/12/14 08:27:04;;;;;;;25.82;14.68;;;;;;;1.46;100.00;100141.83;1735810;82;21064;-67
2022/12/14 08:29:31;;;;;;;26.60;14.18;;;;;;;1.24;100.00;100151.31;1738970;82;21682;-65
2022/12/14 08:31:57;;;;;;;27.65;15.00;;;;;;;1.19;100.00;100153.05;1737940;82;21100;-66
2022/12/14 08:34:24;;;;;;;22.98;13.50;;;;;;;1.42;100.00;100156.52;1737749;82;21537;-66
2022/12/14 08:36:51;;;;;;;26.85;15.53;;;;;;;1.59;100.00;100159.59;1737560;82;21049;-66
2022/12/14 08:39:18;;;;;;;28.62;14.87;;;;;;;1.74;100.00;100156.96;1737119;81;21135;-65
2022/12/14 08:41:45;;;;;;;23.42;13.13;;;;;;;1.97;100.00;100158.67;1735554;82;21897;-66
2022/12/14 08:44:15;;;;;;;28.65;15.53;;;;;;;1.87;92.45;100159.98;1736554;81;21100;-67
2022/12/14 08:46:41;;;;;;;26.17;14.60;;;;;;;1.78;88.28;100157.40;1725950;82;21066;-66
2022/12/14 08:49:07;;;;;;;23.80;13.68;;;;;;;1.76;91.53;100160.42;1731068;82;21342;-66
2022/12/14 08:51:36;;;;;;;27.80;15.78;;;;;;;2.01;89.22;100159.97;1737594;82;21104;-67
2022/12/14 08:54:03;;;;;;;26.12;13.40;;;;;;;1.94;88.58;100170.38;1737937;82;21087;-68
2022/12/14 08:56:31;;;;;;;30.00;15.13;;;;;;;1.78;90.33;100170.38;1736531;82;21044;-67
2022/12/14 08:58:57;;;;;;;25.35;14.25;;;;;;;1.74;87.87;100165.19;1737774;82;21048;-67
2022/12/14 09:01:26;;;;;;;29.12;15.58;;;;;;;2.00;88.80;100166.05;1737665;82;21084;-67
2022/12/14 09:03:53;;;;;;;26.75;13.90;;;;;;;1.83;86.78;100161.29;1733831;82;21049;-67
2022/12/14 09:06:23;;;;;;;24.65;13.88;;;;;;;2.38;84.23;100164.22;1734586;81;21234;-67
2022/12/14 09:08:50;;;;;;;27.05;15.03;;;;;;;2.12;87.95;100168.16;1737875;82;21116;-67
2022/12/14 09:11:18;;;;;;;30.55;15.18;;;;;;;1.82;86.28;100165.63;1736162;82;21068;-67
2022/12/14 09:13:45;;;;;;;27.65;14.95;;;;;;;2.01;84.37;100172.95;1739700;82;21197;-67
2022/12/14 09:16:18;;;;;;;27.22;15.58;;;;;;;2.11;86.16;100168.59;1739924;82;21547;-67
2022/12/14 09:18:45;;;;;;;25.37;14.87;;;;;;;2.25;83.61;100170.72;1734776;82;21914;-67
2022/12/14 09:21:12;;;;;;;25.68;14.90;;;;;;;2.26;85.02;100173.77;1736357;82;21044;-68
2022/12/14 09:23:38;;;;;;;29.00;15.88;;;;;;;2.23;84.69;100166.00;1737949;81;21794;-68
2022/12/14 09:26:08;;;;;;;23.92;13.22;;;;;;;2.48;82.73;100171.09;1732072;82;21239;-68
2022/12/14 09:28:37;;;;;;;28.27;16.02;;;;;;;2.34;71.28;100170.28;1732900;82;21061;-67
2022/12/14 09:31:06;;;;;;;30.32;16.40;;;;;;;2.68;67.82;100169.73;1740422;82;21160;-66
2022/12/14 09:33:35;;;;;;;;;;;;;;;2.83;67.54;100172.69;1743509;82;21092;-66
2022/12/14 09:36:14;;;;;;;28.57;14.38;;;;;;;2.76;67.37;100178.38;1738336;82;20184;-67
2022/12/14 09:38:42;;;;;;;25.27;14.05;;;;;;;2.44;66.20;100185.86;1737472;82;21040;-68
2022/12/14 09:41:35;;;;;;;29.10;14.95;;;;;;;2.69;68.26;100189.23;1729484;82;21057;-66
2022/12/14 09:44:16;;;;;;;26.45;14.80;;;;;;;3.01;66.12;100185.59;1738477;82;21210;-68
2022/12/14 09:47:12;;;;;;;24.00;13.68;;;;;;;3.20;63.94;100177.69;1739785;82;21146;-67
2022/12/14 09:49:47;;;;;;;22.77;12.75;;;;;;;3.46;66.88;100181.00;1736052;82;21006;-67
2022/12/14 09:52:19;;;;;;;23.95;12.70;;;;;;;3.61;63.44;100186.52;1740524;82;21076;-66
2022/12/14 09:54:46;;;;;;;24.02;12.05;;;;;;;3.79;60.53;100188.11;1738301;82;21056;-68
2022/12/14 09:57:29;;;;;;;20.77;11.53;;;;;;;4.10;59.15;100187.86;1740297;82;21150;-68
2022/12/14 09:59:56;;;;;;;22.95;11.55;;;;;;;4.54;57.51;100189.13;1740413;82;21078;-68
2022/12/14 10:02:53;;;;;;;18.12;11.05;;;;;;;4.55;57.23;100192.14;1733678;82;21073;-67
2022/12/14 10:05:43;;;;;;;19.73;11.28;;;;;;;4.95;58.30;100184.70;1733594;82;21069;-67
2022/12/14 10:08:27;;;;;;;21.07;12.82;;;;;;;5.48;56.78;100183.52;1741137;82;21059;-70
2022/12/14 10:11:01;;;;;;;20.48;12.18;;;;;;;5.97;55.10;100184.05;1740159;82;21293;-67
2022/12/14 10:13:53;;;;;;;19.57;10.75;;;;;;;6.06;52.47;100189.13;1728872;82;21548;-67
2022/12/14 14:22:24;;;;;;;22.23;12.87;;;;;;;-5.06;85.23;100371.28;1844280;75;24526;-94
2022/12/14 14:25:03;;;;;;;27.70;14.17;;;;;;;-3.72;78.38;100368.04;1784848;78;20994;-93
2022/12/14 14:27:37;;;;;;;30.87;13.83;;;;;;;-2.79;74.99;100357.67;1754506;78;87065;-65
2022/12/14 14:30:28;;;;;;;27.33;13.53;;;;;;;-2.45;74.14;100375.12;1750932;82;21038;-66
2022/12/14 14:32:56;;;;;;;22.77;11.93;;;;;;;-2.22;73.23;100372.97;1750914;82;21598;-66
2022/12/14 14:35:35;;;;;;;25.37;12.73;;;;;;;-2.43;73.82;100376.02;1751100;82;21061;-66
2022/12/14 14:38:22;;;;;;;21.50;10.77;;;;;;;-2.31;74.26;100375.38;1751030;82;21605;-66
2022/12/14 14:40:52;;;;;;;27.13;13.50;;;;;;;-2.11;74.00;100378.34;1751419;82;21833;-66
2022/12/14 14:43:36;;;;;;;23.90;12.23;;;;;;;-2.62;75.24;100382.95;1751049;82;21074;-67
2022/12/14 14:46:05;;;;;;;24.63;12.70;;;;;;;-2.87;76.66;100388.88;1750410;82;21585;-66
2022/12/14 14:48:40;;;;;;;31.27;15.60;;;;;;;-2.48;76.17;100383.23;1751028;82;21027;-66
2022/12/14 14:51:20;;;;;;;47.13;21.57;;;;;;;-2.43;76.10;100389.34;1751217;82;21071;-66
2022/12/14 14:53:47;;;;;;;34.63;16.65;;;;;;;-2.33;76.28;100390.82;1750987;82;21175;-66
2022/12/14 14:56:35;;;;;;;31.63;15.57;;;;;;;-2.50;76.76;100392.22;1750806;82;21054;-66
2022/12/14 14:59:22;;;;;;;39.73;17.63;;;;;;;-2.16;76.67;100395.46;1750753;81;21554;-66
2022/12/14 15:01:59;;;;;;;51.57;21.13;;;;;;;-2.12;76.22;100399.81;1731653;82;21063;-67
2022/12/14 15:04:29;;;;;;;60.37;25.70;;;;;;;-2.27;76.71;100405.99;1749540;82;21066;-67
2022/12/14 15:06:58;;;;;;;58.17;25.43;;;;;;;-2.56;77.60;100406.27;1750741;81;21124;-67
2022/12/14 15:09:32;;;;;;;74.60;35.07;;;;;;;-2.75;78.87;100408.46;1719371;82;21701;-67
2022/12/14 15:12:03;;;;;;;97.00;39.90;;;;;;;-2.54;79.61;100408.46;1750890;81;21106;-67
2022/12/14 15:14:38;;;;;;;91.90;38.77;;;;;;;-2.54;80.02;100408.03;1720411;82;21094;-67
2022/12/14 15:17:18;;;;;;;77.40;35.33;;;;;;;-2.34;80.23;100413.60;1750791;82;21145;-67
2022/12/14 15:19:49;;;;;;;70.10;33.03;;;;;;;-2.38;79.88;100415.66;1749112;82;21136;-67
2022/12/14 15:22:20;;;;;;;87.27;39.13;;;;;;;-2.44;79.87;100409.11;1747325;82;21096;-66
2022/12/14 15:24:52;;;;;;;78.90;37.00;;;;;;;-2.62;80.31;100412.61;1747252;82;21002;-66
2022/12/14 15:27:32;;;;;;;56.43;25.77;;;;;;;-2.41;79.70;100409.59;1751890;81;21159;-66
2022/12/14 15:30:18;;;;;;;78.33;34.63;;;;;;;-2.29;78.57;100416.70;1755198;81;21560;-66
2022/12/14 15:32:59;;;;;;;94.27;41.00;;;;;;;-2.20;77.65;100418.17;1754717;81;21162;-66
2022/12/14 15:35:38;;;;;;;79.43;35.63;;;;;;;-2.37;78.61;100412.27;1754695;81;21522;-67
2022/12/14 15:38:19;;;;;;;75.77;32.10;;;;;;;-2.81;80.82;100419.05;1754801;81;21064;-66
2022/12/14 15:40:58;;;;;;;79.53;35.57;;;;;;;-2.67;80.77;100415.48;1754990;81;21076;-66
2022/12/14 15:43:26;;;;;;;81.30;33.83;;;;;;;-2.65;80.42;100423.70;1754310;81;21366;-68
2022/12/14 15:45:56;;;;;;;87.87;36.33;;;;;;;-2.66;80.22;100421.11;1754649;81;21251;-67
2022/12/14 15:48:29;;;;;;;67.37;32.08;;;;;;;-2.77;80.07;100414.00;1755006;81;21041;-66
2022/12/14 15:51:03;;;;;;;87.60;37.83;;;;;;;-3.03;80.59;100419.02;1754695;81;21581;-67
2022/12/14 15:53:39;;;;;;;95.30;39.73;;;;;;;-2.86;80.10;100422.82;1754793;81;21022;-67
2022/12/14 15:56:31;;;;;;;108.70;42.17;;;;;;;-2.80;79.75;100428.13;1754904;81;21014;-67
2022/12/14 15:59:01;;;;;;;95.30;38.88;;;;;;;-2.95;81.08;100417.46;1754725;81;21142;-67
2022/12/14 16:01:35;;;;;;;94.60;40.83;;;;;;;-3.00;81.31;100415.20;1753893;81;27109;-67
2022/12/14 16:04:06;;;;;;;96.43;38.13;;;;;;;-3.07;81.50;100413.33;1755007;81;21044;-68
2022/12/14 16:06:37;;;;;;;100.23;40.03;;;;;;;-3.09;82.48;100417.58;1754962;81;21037;-68
2022/12/14 16:09:36;;;;;;;109.72;41.77;;;;;;;-3.18;82.18;100417.80;1755169;81;21069;-67
2022/12/14 16:12:15;;;;;;;110.22;41.02;;;;;;;-3.16;81.13;100417.42;1754854;81;21866;-68
2022/12/14 16:14:53;;;;;;;136.90;46.03;;;;;;;-3.70;82.52;100429.44;1731824;81;21043;-66
2022/12/14 16:17:27;;;;;;;107.73;38.43;;;;;;;-3.43;83.03;100432.23;1724658;83;21046;-66
2022/12/14 16:20:04;;;;;;;68.03;28.03;;;;;;;-3.52;82.90;100432.90;1724698;83;21094;-66
2022/12/14 16:22:31;;;;;;;100.73;37.63;;;;;;;-3.43;82.48;100429.66;1723757;83;21078;-66
2022/12/14 16:25:15;;;;;;;87.80;34.73;;;;;;;-3.49;83.73;100429.52;1724836;83;21527;-66
2022/12/14 16:27:46;;;;;;;86.73;32.20;;;;;;;-3.51;83.09;100432.47;1700091;83;21569;-66
2022/12/14 16:30:30;;;;;;;110.60;41.28;;;;;;;-3.38;82.09;100438.39;1658413;85;21652;-66
2022/12/14 16:33:14;;;;;;;107.97;42.93;;;;;;;-3.44;83.02;100435.65;1685671;83;21104;-66
2022/12/14 16:35:40;;;;;;;78.30;35.03;;;;;;;-3.81;84.13;100439.88;1685732;85;21058;-66
2022/12/14 16:38:13;;;;;;;92.63;37.33;;;;;;;-3.92;85.57;100451.58;1685574;85;21310;-66
2022/12/14 16:41:00;;;;;;;98.33;39.60;;;;;;;-3.67;86.40;100450.09;1686061;85;21589;-66
2022/12/14 16:43:33;;;;;;;67.47;27.47;;;;;;;-3.96;87.69;100444.60;1685470;85;21244;-66
2022/12/14 16:46:06;;;;;;;84.83;34.50;;;;;;;-4.17;88.29;100440.62;1685864;85;21014;-65
2022/12/14 16:48:40;;;;;;;82.23;35.33;;;;;;;-3.94;87.39;100445.09;1685579;85;21106;-66
2022/12/14 16:51:26;;;;;;;67.17;29.77;;;;;;;-4.21;88.14;100446.50;1685711;85;21263;-66
2022/12/14 16:54:01;;;;;;;64.50;27.33;;;;;;;-4.06;88.06;100437.92;1685563;85;21026;-66
2022/12/14 16:56:42;;;;;;;63.97;27.83;;;;;;;-4.01;88.37;100447.05;1685774;85;21061;-66
2022/12/14 16:59:31;;;;;;;81.60;33.35;;;;;;;-4.05;89.58;100464.13;1685623;85;21771;-66
2022/12/14 17:01:57;;;;;;;64.00;26.80;;;;;;;-4.25;90.36;100454.98;1685345;85;21085;-66
2022/12/14 17:04:33;;;;;;;78.93;34.63;;;;;;;-4.33;91.52;100448.73;1685588;85;21372;-66
2022/12/14 17:06:59;;;;;;;60.33;26.50;;;;;;;-4.41;92.40;100455.38;1685072;85;21058;-66
2022/12/14 17:09:28;;;;;;;77.40;33.20;;;;;;;-3.99;89.56;100456.11;1685884;85;21589;-66
2022/12/14 17:12:00;;;;;;;82.70;33.83;;;;;;;-4.23;90.52;100448.19;1686038;85;21050;-66
2022/12/14 17:14:27;;;;;;;91.03;38.33;;;;;;;-4.16;91.15;100457.81;1684761;85;21069;-67
2022/12/14 17:17:00;;;;;;;90.37;39.93;;;;;;;-4.25;91.34;100466.55;1684311;85;21386;-66
2022/12/14 17:19:33;;;;;;;76.77;33.37;;;;;;;-4.32;92.79;100463.36;1684091;85;21116;-67
2022/12/14 17:21:59;;;;;;;79.97;35.90;;;;;;;-4.34;92.12;100467.58;1684223;84;21577;-67
2022/12/14 17:24:29;;;;;;;85.93;38.50;;;;;;;-4.52;94.72;100471.35;1684289;85;21069;-67
2022/12/14 17:26:56;;;;;;;75.30;33.73;;;;;;;-4.66;97.44;100470.94;1690370;83;22118;-66
2022/12/14 17:29:25;;;;;;;94.10;39.97;;;;;;;-4.50;97.35;100472.27;1724723;83;21140;-66
2022/12/14 17:31:55;;;;;;;75.87;32.88;;;;;;;-4.27;97.01;100476.79;1724476;83;21577;-66
2022/12/14 17:34:23;;;;;;;88.77;34.90;;;;;;;-4.27;98.45;100466.92;1724560;83;21034;-66
2022/12/14 17:36:50;;;;;;;81.57;34.47;;;;;;;-4.35;97.75;100468.39;1724474;83;21580;-67
2022/12/14 17:39:17;;;;;;;71.17;33.10;;;;;;;-4.16;97.84;100464.23;1724683;83;21010;-66
2022/12/14 17:41:44;;;;;;;77.63;35.17;;;;;;;-3.89;95.79;100458.98;1724359;83;22191;-66
2022/12/14 17:44:17;;;;;;;70.47;30.90;;;;;;;-3.97;95.67;100454.45;1724583;83;21034;-66
2022/12/14 17:46:47;;;;;;;69.13;30.53;;;;;;;-3.89;93.97;100458.98;1724596;83;21569;-66
2022/12/14 17:49:14;;;;;;;68.97;30.17;;;;;;;-3.77;94.26;100455.86;1724612;83;21118;-66
2022/12/14 17:51:44;;;;;;;72.93;28.57;;;;;;;-3.76;93.38;100461.44;1724919;83;21109;-66